Time;durP1;ratioP1;P1;durP2;ratioP2;P2;SDS_P1;SDS_P2;PMS_P1;PMS_P2;Temp;Humidity;BMP_temperature;BMP_pressure;BME280_temperature;BME280_humidity;BME280_pressure;Samples;Min_cycle;Max_cycle;Signal;HPM_P1;HPM_P2
2022/06/16 00:00:10;;;;;;;8.30;5.50;;;;;;;13.73;67.36;99812.88;109177;1276;137967;-60
2022/06/16 00:02:44;;;;;;;9.60;5.10;;;;;;;13.68;67.57;99810.32;109496;1273;22461;-60
2022/06/16 00:05:12;;;;;;;10.40;5.30;;;;;;;13.64;67.52;99813.10;109456;1274;138203;-60
2022/06/16 00:07:39;;;;;;;10.00;5.10;;;;;;;13.61;67.67;99816.10;109458;1274;22428;-60
2022/06/16 00:10:07;;;;;;;11.80;6.10;;;;;;;13.55;67.92;99814.23;109527;1273;22446;-60
2022/06/16 00:12:34;;;;;;;11.70;5.90;;;;;;;13.51;67.89;99817.67;109381;1273;139395;-60
2022/06/16 00:15:00;;;;;;;9.10;5.60;;;;;;;13.48;68.14;99813.17;109495;1271;22542;-61
2022/06/16 00:17:27;;;;;;;12.40;5.70;;;;;;;13.43;68.15;99815.73;109400;1271;138077;-60
2022/06/16 00:19:55;;;;;;;11.00;5.60;;;;;;;13.38;68.34;99811.68;109422;1271;22588;-60
2022/06/16 00:22:22;;;;;;;10.20;5.80;;;;;;;13.35;68.40;99814.67;109540;1271;22560;-60
2022/06/16 00:24:49;;;;;;;9.90;5.20;;;;;;;13.32;68.68;99814.86;109410;1274;139011;-60
2022/06/16 00:27:16;;;;;;;8.60;5.00;;;;;;;13.29;68.54;99811.02;109515;1271;22454;-60
2022/06/16 00:29:43;;;;;;;7.70;4.30;;;;;;;13.26;68.87;99812.13;109328;1274;138344;-60
2022/06/16 00:32:11;;;;;;;8.60;5.10;;;;;;;13.21;69.07;99812.92;109471;1271;22274;-60
2022/06/16 00:34:38;;;;;;;8.40;4.50;;;;;;;13.17;69.04;99815.73;109379;1274;138033;-60
2022/06/16 00:37:05;;;;;;;12.20;4.80;;;;;;;13.11;69.12;99815.21;109525;1271;22429;-60
2022/06/16 00:39:32;;;;;;;8.60;4.50;;;;;;;13.08;69.34;99814.44;109548;1271;22428;-60
2022/06/16 00:42:09;;;;;;;7.00;3.80;;;;;;;13.04;69.65;99814.58;109419;1271;138301;-60
2022/06/16 00:44:37;;;;;;;;;;;;;;;13.01;69.82;99819.36;109563;1274;22496;-60
2022/06/16 00:47:05;;;;;;;;;;;;;;;12.97;69.87;99815.92;109377;1274;125648;-60
2022/06/16 00:49:32;;;;;;;11.20;5.10;;;;;;;12.93;69.91;99819.34;109501;1271;22459;-60
2022/06/16 00:52:00;;;;;;;6.10;4.00;;;;;;;12.88;70.13;99824.00;109347;1271;22562;-60
2022/06/16 00:54:42;;;;;;;9.50;4.10;;;;;;;12.85;70.07;99822.52;109297;1272;138553;-60
2022/06/16 00:57:13;;;;;;;8.50;4.50;;;;;;;12.83;70.34;99821.86;109478;1271;22558;-60
2022/06/16 00:59:40;;;;;;;8.80;4.70;;;;;;;12.78;70.53;99826.64;109458;1271;139877;-60
2022/06/16 01:02:08;;;;;;;8.40;3.90;;;;;;;12.74;70.65;99825.47;109552;1271;22303;-58
2022/06/16 01:04:52;;;;;;;9.50;4.60;;;;;;;12.72;70.56;99822.23;109336;1271;138520;-59
2022/06/16 01:07:23;;;;;;;8.90;4.20;;;;;;;12.69;70.70;99825.00;105634;1271;22544;-59
2022/06/16 01:09:50;;;;;;;10.60;4.30;;;;;;;12.66;70.56;99825.32;109455;1274;22608;-59
2022/06/16 01:16:09;;;;;;;7.30;4.20;;;;;;;12.60;71.03;99821.27;109264;1274;22430;-59
2022/06/16 01:18:54;;;;;;;9.60;4.40;;;;;;;12.56;71.08;99820.21;109332;1274;138119;-59
2022/06/16 01:21:25;;;;;;;9.90;4.80;;;;;;;12.53;71.23;99820.48;109371;1273;23170;-59
2022/06/16 01:24:18;;;;;;;8.10;4.60;;;;;;;12.51;71.53;99821.07;109188;1274;138106;-59
2022/06/16 01:26:51;;;;;;;10.40;4.40;;;;;;;12.50;71.41;99818.00;109339;1274;23589;-59
2022/06/16 01:29:42;;;;;;;9.30;4.70;;;;;;;12.49;71.69;99819.41;109210;1274;138633;-59
2022/06/16 01:32:19;;;;;;;7.40;4.30;;;;;;;12.48;71.71;99811.80;109358;1274;23237;-59
2022/06/16 01:35:02;;;;;;;12.20;4.90;;;;;;;12.49;71.73;99809.35;109280;1274;139008;-59
2022/06/16 01:37:55;;;;;;;7.90;4.20;;;;;;;12.50;71.83;99812.31;109325;1274;22434;-59
2022/06/16 01:40:45;;;;;;;10.10;4.10;;;;;;;12.49;71.88;99814.11;109377;1274;22996;-59
2022/06/16 01:43:30;;;;;;;10.20;4.50;;;;;;;12.48;71.86;99811.14;109247;1274;22458;-59
2022/06/16 01:46:08;;;;;;;12.40;4.40;;;;;;;12.49;72.01;99809.68;109385;1274;22471;-59
2022/06/16 01:48:35;;;;;;;10.00;5.00;;;;;;;12.49;71.79;99809.02;109127;1274;140194;-59
2022/06/16 01:51:11;;;;;;;8.40;4.50;;;;;;;12.48;72.03;99815.96;109429;1274;23404;-59
2022/06/16 01:54:06;;;;;;;8.30;4.50;;;;;;;12.48;71.79;99812.24;109200;1274;138008;-59
2022/06/16 01:56:44;;;;;;;7.60;4.30;;;;;;;12.48;71.93;99814.05;109260;1274;22772;-59
2022/06/16 01:59:15;;;;;;;7.30;4.40;;;;;;;12.49;71.95;99814.71;109162;1274;139824;-59
2022/06/16 02:01:44;;;;;;;8.60;3.90;;;;;;;12.50;72.15;99818.16;109294;1274;22453;-59
2022/06/16 02:04:20;;;;;;;6.20;3.50;;;;;;;12.51;72.19;99818.39;109287;1274;23035;-59
2022/06/16 02:06:50;;;;;;;8.30;4.00;;;;;;;12.54;72.35;99822.24;109179;1274;138268;-59
2022/06/16 02:23:28;;;;;;;7.20;3.40;;;;;;;12.68;72.54;99830.41;109509;1271;138852;-58
2022/06/16 02:25:56;;;;;;;10.70;4.10;;;;;;;12.72;72.97;99831.03;109536;1274;22435;-58
2022/06/16 02:28:24;;;;;;;8.40;4.10;;;;;;;12.77;73.21;99836.05;109431;1274;22403;-58
2022/06/16 02:31:12;;;;;;;6.90;3.80;;;;;;;12.83;73.00;99839.20;109354;1274;23409;-59
2022/06/16 02:33:54;;;;;;;10.60;3.90;;;;;;;12.90;72.94;99837.91;109408;1274;22446;-58
2022/06/16 02:36:31;;;;;;;11.00;4.70;;;;;;;12.96;73.02;99843.16;109272;1273;138423;-61
2022/06/16 02:39:33;;;;;;;6.60;4.00;;;;;;;13.02;72.72;99843.98;109440;1274;22440;-59
2022/06/16 02:42:21;;;;;;;6.90;3.60;;;;;;;13.08;72.70;99838.23;109247;1274;138220;-59
2022/06/16 02:45:14;;;;;;;12.30;4.50;;;;;;;13.13;72.49;99840.22;109498;1274;22503;-59
2022/06/16 02:47:54;;;;;;;6.30;3.70;;;;;;;13.18;72.30;99839.98;108443;1282;140913;-59
2022/06/16 02:50:30;;;;;;;6.60;3.70;;;;;;;13.22;72.05;99845.88;108827;1281;22389;-59
2022/06/16 02:53:06;;;;;;;8.50;4.50;;;;;;;13.26;71.93;99843.86;108667;1281;138519;-59
2022/06/16 02:55:38;;;;;;;7.20;4.00;;;;;;;13.31;72.12;99846.61;108275;1284;22411;-58
2022/06/16 02:58:07;;;;;;;6.70;4.00;;;;;;;13.34;71.75;99840.55;108549;1281;22449;-62
2022/06/16 03:00:41;;;;;;;14.50;4.90;;;;;;;13.38;71.91;99846.48;108200;1282;138027;-59
2022/06/16 03:03:26;;;;;;;8.50;4.00;;;;;;;13.44;71.53;99847.59;108534;1281;22453;-59
2022/06/16 03:06:19;;;;;;;8.60;4.10;;;;;;;13.51;71.48;99852.55;108662;1281;139095;-59
2022/06/16 03:08:49;;;;;;;8.10;3.80;;;;;;;13.58;71.29;99849.00;108865;1280;22471;-59
2022/06/16 03:11:16;;;;;;;6.80;3.80;;;;;;;13.64;71.35;99850.12;108646;1280;138827;-59
2022/06/16 03:13:42;;;;;;;8.60;3.20;;;;;;;13.70;71.31;99849.70;108741;1281;22451;-59
2022/06/16 03:16:14;;;;;;;8.00;4.10;;;;;;;13.77;71.13;99844.50;108650;1281;22479;-59
2022/06/16 03:18:41;;;;;;;8.10;3.70;;;;;;;13.84;70.94;99847.81;108519;1281;139137;-59
2022/06/16 03:21:08;;;;;;;;;;;;;;;13.91;70.84;99848.36;108720;1281;22572;-59
2022/06/16 03:23:35;;;;;;;10.00;3.50;;;;;;;13.99;70.72;99846.79;108485;1280;124625;-59
2022/06/16 03:26:03;;;;;;;6.10;3.20;;;;;;;14.06;70.62;99845.14;109237;1274;22477;-59
2022/06/16 03:28:29;;;;;;;8.80;3.00;;;;;;;14.14;70.26;99846.74;109050;1274;139422;-59
2022/06/16 03:30:56;;;;;;;6.20;3.20;;;;;;;14.21;70.18;99844.23;109359;1274;22524;-59
2022/06/16 03:33:23;;;;;;;7.00;3.60;;;;;;;14.29;69.96;99845.70;109299;1274;23591;-59
2022/06/16 03:35:51;;;;;;;6.00;3.20;;;;;;;14.37;69.83;99845.10;109205;1274;138890;-59
2022/06/16 03:40:51;;;;;;;3.90;3.10;;;;;;;14.51;69.58;99843.04;109122;1274;139008;-59
2022/06/16 03:43:18;;;;;;;4.90;2.70;;;;;;;14.60;69.13;99845.97;109496;1274;22905;-59
2022/06/16 03:45:46;;;;;;;6.70;3.30;;;;;;;14.68;68.77;99846.48;109324;1273;22498;-59
2022/06/16 03:48:14;;;;;;;4.50;3.10;;;;;;;14.73;68.51;99844.48;109081;1274;138067;-59
2022/06/16 03:50:43;;;;;;;9.30;3.70;;;;;;;14.82;68.41;99850.45;109300;1274;22421;-59
2022/06/16 03:53:13;;;;;;;5.50;3.20;;;;;;;14.90;68.22;99845.53;109192;1274;139319;-60
2022/06/16 03:55:43;;;;;;;6.30;3.50;;;;;;;14.97;68.05;99842.63;109344;1274;22413;-59
2022/06/16 03:58:11;;;;;;;9.70;4.20;;;;;;;15.03;67.74;99844.23;109215;1274;22456;-59
2022/06/16 04:00:38;;;;;;;5.70;3.70;;;;;;;15.08;67.48;99844.88;109247;1274;137592;-59
2022/06/16 04:05:51;;;;;;;6.40;3.20;;;;;;;15.20;67.04;99840.17;109227;1274;137976;-59
2022/06/16 04:08:19;;;;;;;5.40;3.10;;;;;;;15.27;66.75;99843.55;109329;1274;23313;-59
2022/06/16 04:10:48;;;;;;;9.90;3.80;;;;;;;15.32;66.45;99840.11;109090;1274;139724;-59
2022/06/16 04:13:15;;;;;;;7.60;3.40;;;;;;;15.39;66.26;99840.86;109366;1274;22439;-59
2022/06/16 04:15:52;;;;;;;5.60;3.80;;;;;;;15.46;66.04;99850.15;109293;1274;22498;-59
2022/06/16 04:18:21;;;;;;;4.20;3.20;;;;;;;15.54;65.82;99849.80;109310;1274;138232;-59
2022/06/16 04:20:48;;;;;;;6.00;3.30;;;;;;;15.61;65.88;99849.95;109348;1274;22421;-60
2022/06/16 04:23:43;;;;;;;12.40;3.70;;;;;;;15.70;65.18;99851.45;109355;1274;137762;-60
2022/06/16 04:26:10;;;;;;;7.20;3.80;;;;;;;15.79;65.12;99849.40;109420;1274;23304;-59
2022/06/16 04:28:43;;;;;;;7.50;4.20;;;;;;;15.88;64.79;99850.21;109394;1273;139102;-58
2022/06/16 04:31:10;;;;;;;5.80;3.40;;;;;;;15.97;64.79;99851.55;109425;1273;23310;-58
2022/06/16 04:33:37;;;;;;;7.50;3.40;;;;;;;16.06;65.01;99852.68;109307;1274;22414;-58
2022/06/16 04:36:07;;;;;;;6.90;3.40;;;;;;;16.15;64.65;99848.20;109240;1274;138842;-59
2022/06/16 04:38:38;;;;;;;5.70;3.80;;;;;;;16.26;64.00;99847.92;109366;1272;22616;-59
2022/06/16 04:41:05;;;;;;;7.40;3.30;;;;;;;16.33;63.35;99847.46;109248;1274;137752;-59
2022/06/16 04:43:33;;;;;;;7.10;4.10;;;;;;;16.40;63.11;99849.84;109437;1273;22439;-58
2022/06/16 04:46:00;;;;;;;10.50;3.80;;;;;;;16.46;62.88;99845.87;109401;1274;22450;-59
2022/06/16 04:48:35;;;;;;;7.40;3.70;;;;;;;16.53;62.69;99850.49;109161;1274;137604;-59
2022/06/16 04:51:07;;;;;;;8.30;4.10;;;;;;;16.59;62.18;99856.69;109392;1274;22439;-60
2022/06/16 04:53:34;;;;;;;6.20;3.50;;;;;;;16.65;62.09;99856.95;109164;1274;139029;-58
2022/06/16 04:56:08;;;;;;;9.00;4.40;;;;;;;16.70;62.06;99855.70;109326;1274;23155;-59
2022/06/16 04:58:55;;;;;;;6.20;3.80;;;;;;;16.77;61.92;99854.63;109277;1274;137556;-59
2022/06/16 05:01:54;;;;;;;11.50;4.30;;;;;;;16.84;61.60;99850.05;109242;1274;22898;-60
2022/06/16 05:04:50;;;;;;;6.80;3.50;;;;;;;16.93;61.44;99850.00;109198;1274;138795;-60
2022/06/16 05:07:27;;;;;;;8.50;4.00;;;;;;;17.02;61.23;99852.43;109396;1274;22444;-60
2022/06/16 05:10:14;;;;;;;8.60;3.80;;;;;;;17.15;60.76;99848.81;109094;1273;22489;-59
2022/06/16 05:13:01;;;;;;;6.00;3.20;;;;;;;17.29;60.07;99854.77;109333;1273;22502;-60
2022/06/16 05:15:37;;;;;;;5.30;3.20;;;;;;;17.44;59.84;99856.84;109319;1273;23639;-60
2022/06/16 05:18:30;;;;;;;9.80;3.20;;;;;;;17.64;58.68;99857.87;109102;1273;137628;-60
2022/06/16 05:21:20;;;;;;;7.20;2.50;;;;;;;17.90;58.09;99860.48;109486;1274;23210;-60
2022/06/16 05:24:05;;;;;;;4.50;2.70;;;;;;;18.23;57.29;99860.26;109315;1270;137385;-60
2022/06/16 05:26:32;;;;;;;6.20;2.60;;;;;;;18.58;55.64;99858.90;109511;1271;23420;-60
2022/06/16 05:29:37;;;;;;;7.70;2.80;;;;;;;19.00;54.14;99856.33;109185;1271;138197;-60
2022/06/16 05:32:20;;;;;;;8.90;3.30;;;;;;;19.35;52.96;99857.08;109437;1271;23615;-58
2022/06/16 05:35:23;;;;;;;12.50;3.60;;;;;;;19.69;52.53;99856.42;109387;1271;137451;-60
2022/06/16 05:38:10;;;;;;;5.10;2.60;;;;;;;20.02;52.08;99856.35;109185;1273;23409;-59
2022/06/16 05:40:46;;;;;;;16.10;3.60;;;;;;;20.38;51.73;99853.72;109315;1271;138961;-59
2022/06/16 05:43:24;;;;;;;7.40;2.70;;;;;;;20.75;50.53;99859.54;109420;1271;23555;-59
2022/06/16 05:46:22;;;;;;;7.50;2.90;;;;;;;21.04;48.99;99854.83;109517;1271;22439;-59
2022/06/16 05:48:56;;;;;;;14.50;3.70;;;;;;;21.14;47.91;99852.43;109533;1271;23038;-59
2022/06/16 05:51:23;;;;;;;10.10;2.30;;;;;;;21.14;47.65;99852.98;109469;1271;22444;-59
2022/06/16 05:53:58;;;;;;;4.60;1.80;;;;;;;21.14;47.20;99849.66;109236;1274;137513;-59
2022/06/16 05:56:29;;;;;;;9.30;2.30;;;;;;;21.15;46.87;99853.45;109441;1274;22465;-58
2022/06/16 05:58:56;;;;;;;5.00;2.00;;;;;;;21.09;46.33;99853.55;109487;1271;137728;-59
2022/06/16 06:01:24;;;;;;;5.40;2.40;;;;;;;20.96;46.10;99855.09;109513;1271;22565;-59
2022/06/16 06:03:58;;;;;;;9.30;2.60;;;;;;;20.81;46.38;99855.60;109534;1271;22495;-58
2022/06/16 06:06:25;;;;;;;4.20;1.90;;;;;;;20.71;46.27;99856.52;109321;1274;137813;-58
2022/06/16 06:17:16;;;;;;;4.80;2.00;;;;;;;20.19;46.42;99857.77;109471;1271;138224;-58
2022/06/16 06:19:43;;;;;;;4.40;2.30;;;;;;;20.08;47.01;99858.02;109580;1271;22230;-59
2022/06/16 06:22:16;;;;;;;6.00;2.30;;;;;;;20.01;47.52;99858.96;109511;1271;22451;-59
2022/06/16 06:24:52;;;;;;;3.90;2.00;;;;;;;20.02;47.52;99858.17;109376;1271;137192;-58
2022/06/16 06:27:40;;;;;;;4.00;2.00;;;;;;;20.01;47.33;99861.06;109494;1273;23153;-58
2022/06/16 06:30:12;;;;;;;7.10;1.80;;;;;;;20.00;47.04;99861.74;109313;1274;137522;-58
2022/06/16 06:32:39;;;;;;;4.10;2.30;;;;;;;19.96;47.64;99862.13;109426;1273;22206;-58
2022/06/16 06:35:06;;;;;;;7.30;2.30;;;;;;;19.98;48.44;99866.11;109478;1271;138646;-58
2022/06/16 06:37:33;;;;;;;2.80;2.10;;;;;;;20.01;47.57;99863.52;109434;1272;22767;-57
2022/06/16 06:40:00;;;;;;;6.40;2.50;;;;;;;20.01;47.96;99865.73;109499;1271;22706;-58
2022/06/16 06:42:27;;;;;;;4.50;2.10;;;;;;;20.04;47.97;99867.87;109509;1271;138880;-58
2022/06/16 06:44:55;;;;;;;4.70;2.20;;;;;;;20.10;48.52;99864.00;109506;1271;22570;-58
2022/06/16 06:47:31;;;;;;;4.70;2.00;;;;;;;20.19;48.19;99868.09;109399;1274;137365;-58
2022/06/16 06:49:58;;;;;;;5.90;2.20;;;;;;;20.23;48.72;99863.54;109619;1271;22798;-58
2022/06/16 06:52:25;;;;;;;4.50;2.30;;;;;;;20.26;48.12;99860.25;109593;1271;22433;-59
2022/06/16 06:54:52;;;;;;;5.70;1.90;;;;;;;20.28;48.37;99863.08;109574;1271;23294;-59
2022/06/16 06:57:24;;;;;;;6.70;2.60;;;;;;;20.31;48.19;99857.54;109498;1273;23245;-59
2022/06/16 06:59:51;;;;;;;2.40;1.70;;;;;;;20.36;47.69;99854.26;109424;1271;138456;-58
2022/06/16 07:02:18;;;;;;;2.80;2.10;;;;;;;20.40;47.82;99854.07;109570;1271;22456;-59
2022/06/16 07:04:45;;;;;;;2.60;1.50;;;;;;;20.46;47.80;99849.50;109449;1271;137667;-58
2022/06/16 07:07:14;;;;;;;4.20;2.40;;;;;;;20.53;47.47;99851.19;109567;1271;24087;-58
2022/06/16 07:09:41;;;;;;;4.30;2.20;;;;;;;20.58;47.05;99849.46;109587;1273;23683;-59
2022/06/16 07:12:13;;;;;;;8.90;2.10;;;;;;;20.61;47.37;99849.34;109383;1274;137574;-59
2022/06/16 07:14:46;;;;;;;2.60;1.50;;;;;;;20.65;47.32;99847.13;109632;1271;23157;-59
2022/06/16 07:17:13;;;;;;;3.60;1.60;;;;;;;20.70;47.10;99843.77;109334;1274;137890;-59
2022/06/16 07:19:40;;;;;;;2.40;1.50;;;;;;;20.76;46.40;99846.79;109646;1270;22469;-59
2022/06/16 07:22:07;;;;;;;16.30;2.70;;;;;;;20.79;46.01;99847.89;109550;1271;22548;-59
2022/06/16 07:24:35;;;;;;;3.30;1.80;;;;;;;20.81;45.35;99844.77;109265;1274;139239;-58
2022/06/16 07:27:02;;;;;;;9.10;1.80;;;;;;;20.81;45.17;99842.63;109421;1273;22558;-58
2022/06/16 07:29:29;;;;;;;6.40;2.00;;;;;;;20.82;46.16;99843.44;109372;1272;138431;-58
2022/06/16 07:32:03;;;;;;;3.20;1.60;;;;;;;20.86;46.34;99843.73;109428;1274;23511;-59
2022/06/16 07:34:30;;;;;;;4.40;1.80;;;;;;;20.91;45.17;99844.94;109289;1274;137802;-58
2022/06/16 07:36:56;;;;;;;8.20;2.30;;;;;;;20.90;44.45;99841.70;106221;1274;22881;-58
2022/06/16 07:39:26;;;;;;;3.50;1.70;;;;;;;20.84;44.69;99838.80;109457;1274;22475;-58
2022/06/16 07:41:53;;;;;;;2.40;2.10;;;;;;;20.83;44.98;99836.88;109407;1273;139104;-59
2022/06/16 07:44:19;;;;;;;3.00;1.70;;;;;;;20.88;44.64;99831.79;109452;1274;23340;-59
2022/06/16 07:46:47;;;;;;;2.30;1.80;;;;;;;20.90;44.65;99829.79;109379;1273;138741;-59
2022/06/16 07:49:17;;;;;;;4.70;2.50;;;;;;;20.94;46.19;99830.37;109505;1273;22524;-59
2022/06/16 07:51:43;;;;;;;7.30;1.90;;;;;;;21.01;45.48;99834.68;109420;1274;22545;-59
2022/06/16 07:54:10;;;;;;;6.10;2.20;;;;;;;21.06;44.31;99835.16;109380;1274;139320;-59
2022/06/16 07:56:57;;;;;;;4.00;2.30;;;;;;;21.05;43.85;99832.42;109553;1274;22546;-59
2022/06/16 07:59:24;;;;;;;4.50;1.80;;;;;;;21.04;43.99;99829.35;109306;1273;137780;-59
2022/06/16 08:01:51;;;;;;;4.20;1.90;;;;;;;21.05;43.99;99830.14;109490;1274;22464;-59
2022/06/16 08:04:18;;;;;;;5.20;1.90;;;;;;;21.04;44.02;99825.58;109414;1274;22461;-59
2022/06/16 08:06:45;;;;;;;8.20;3.30;;;;;;;21.03;43.82;99827.33;109363;1274;137632;-55
2022/06/16 08:09:12;;;;;;;4.40;2.20;;;;;;;21.00;43.36;99833.92;109400;1274;23226;-55
2022/06/16 08:14:24;;;;;;;3.50;1.70;;;;;;;20.90;42.37;99829.74;109435;1274;22373;-56
2022/06/16 08:16:52;;;;;;;2.00;1.60;;;;;;;20.86;42.60;99830.73;109308;1274;137915;-55
2022/06/16 08:19:19;;;;;;;3.50;1.80;;;;;;;20.84;42.50;99823.77;109477;1273;22657;-55
2022/06/16 08:21:46;;;;;;;2.60;2.00;;;;;;;20.86;43.47;99820.30;109477;1273;22445;-55
2022/06/16 08:24:13;;;;;;;3.40;2.30;;;;;;;20.93;43.61;99815.67;109355;1274;138261;-55
2022/06/16 08:26:40;;;;;;;12.30;2.10;;;;;;;21.02;43.76;99817.81;109466;1273;22503;-55
2022/06/16 08:29:08;;;;;;;5.00;2.50;;;;;;;21.12;43.99;99818.67;109532;1273;139994;-55
2022/06/16 08:34:05;;;;;;;3.80;1.60;;;;;;;21.35;43.34;99815.83;101846;1312;545836;-54
2022/06/16 08:36:32;;;;;;;2.40;1.90;;;;;;;21.45;42.88;99820.18;105552;1287;138188;-55
2022/06/16 08:38:59;;;;;;;4.60;2.50;;;;;;;21.49;41.38;99813.98;103780;1290;23243;-54
2022/06/16 08:42:00;;;;;;;2.60;2.40;;;;;;;21.48;42.47;99817.95;103551;1291;137634;-55
2022/06/16 08:44:59;;;;;;;6.70;3.10;;;;;;;21.55;43.15;99814.94;103801;1289;24459;-54
2022/06/16 08:48:15;;;;;;;4.30;2.50;;;;;;;21.69;42.70;99810.85;107699;1286;270200;-54
2022/06/16 08:51:12;;;;;;;5.60;1.90;;;;;;;21.82;42.82;99812.65;107253;1294;22567;-55
2022/06/16 08:53:47;;;;;;;3.60;1.90;;;;;;;21.91;42.29;99805.79;107035;1295;137163;-54
2022/06/16 08:56:47;;;;;;;5.90;2.10;;;;;;;21.99;42.38;99811.09;107579;1290;22586;-55
2022/06/16 08:59:19;;;;;;;5.40;1.90;;;;;;;22.04;40.23;99811.40;107385;1292;138157;-54
2022/06/16 09:01:48;;;;;;;3.00;1.30;;;;;;;21.97;40.33;99816.02;107487;1290;22583;-54
2022/06/16 09:04:22;;;;;;;1.90;1.30;;;;;;;21.89;40.12;99816.16;107668;1291;22493;-54
2022/06/16 09:07:10;;;;;;;6.90;1.80;;;;;;;21.84;40.27;99811.71;107414;1292;139186;-54
2022/06/16 09:13:04;;;;;;;2.40;1.30;;;;;;;21.97;42.01;99811.20;107412;1291;22422;-55
2022/06/16 09:16:12;;;;;;;5.30;1.60;;;;;;;22.09;41.88;99809.17;107521;1292;22489;-55
2022/06/16 09:18:59;;;;;;;5.90;1.40;;;;;;;22.18;40.75;99809.77;107413;1292;138750;-55
2022/06/16 09:21:35;;;;;;;;;;;;;;;22.21;40.64;99807.50;107455;1292;22669;-55
2022/06/16 09:24:20;;;;;;;2.50;1.40;;;;;;;22.23;40.61;99802.64;107338;1292;124932;-55
2022/06/16 09:26:56;;;;;;;2.30;1.40;;;;;;;22.27;40.60;99807.48;107789;1285;22583;-55
2022/06/16 09:29:31;;;;;;;2.20;1.20;;;;;;;22.29;40.57;99802.84;108429;1284;137051;-55
2022/06/16 09:32:03;;;;;;;11.00;2.20;;;;;;;22.33;40.37;99805.79;108453;1284;23451;-55
2022/06/16 09:34:58;;;;;;;2.30;1.40;;;;;;;22.36;40.16;99805.15;108393;1284;137490;-55
2022/06/16 09:37:31;;;;;;;6.80;2.00;;;;;;;22.37;39.96;99804.39;108268;1284;22405;-55
2022/06/16 09:40:06;;;;;;;1.80;1.20;;;;;;;22.38;40.18;99801.73;108320;1286;22414;-55
2022/06/16 09:43:02;;;;;;;4.00;1.30;;;;;;;22.41;40.12;99802.42;108204;1284;137897;-55
2022/06/16 09:45:53;;;;;;;7.20;1.90;;;;;;;22.45;39.76;99799.42;107735;1290;23475;-55
2022/06/16 09:48:31;;;;;;;3.00;1.20;;;;;;;22.51;39.16;99803.67;107656;1290;137423;-55
2022/06/16 09:51:08;;;;;;;2.40;1.20;;;;;;;22.51;38.50;99803.88;107734;1290;22496;-56
2022/06/16 09:53:39;;;;;;;;;;;;;;;22.47;38.72;99804.06;107336;1290;138920;-56
2022/06/16 09:56:16;;;;;;;5.80;1.90;;;;;;;22.48;39.26;99807.59;107676;1289;22448;-56
2022/06/16 09:58:50;;;;;;;2.00;1.40;;;;;;;22.55;39.60;99809.13;107590;1290;138275;-56
2022/06/16 10:01:19;;;;;;;5.60;1.70;;;;;;;22.57;38.62;99810.66;107482;1290;22604;-56
2022/06/16 10:04:06;;;;;;;2.40;1.10;;;;;;;22.54;39.10;99812.81;107681;1290;23460;-56
2022/06/16 10:06:53;;;;;;;3.20;1.50;;;;;;;22.52;38.65;99805.10;107692;1290;138590;-56
2022/06/16 10:09:26;;;;;;;1.60;1.40;;;;;;;22.51;39.32;99807.23;107846;1289;22514;-56
2022/06/16 10:12:08;;;;;;;3.30;1.30;;;;;;;22.52;39.33;99806.88;108386;1282;138480;-56
2022/06/16 10:14:46;;;;;;;3.10;1.20;;;;;;;22.53;38.98;99804.95;108507;1282;22479;-55
2022/06/16 10:17:15;;;;;;;5.10;1.40;;;;;;;22.52;39.65;99804.76;108281;1282;137775;-55
2022/06/16 10:19:44;;;;;;;2.80;1.40;;;;;;;22.56;39.00;99804.59;108448;1282;22496;-56
2022/06/16 10:22:14;;;;;;;3.30;1.10;;;;;;;22.59;38.29;99801.77;108778;1277;22439;-56
2022/06/16 10:25:03;;;;;;;2.00;1.40;;;;;;;22.62;39.59;99798.44;108922;1277;137221;-55
2022/06/16 10:27:34;;;;;;;2.40;1.50;;;;;;;22.71;39.38;99791.73;109278;1277;22545;-56
2022/06/16 10:30:02;;;;;;;4.80;1.50;;;;;;;22.79;38.75;99786.70;109045;1277;137645;-56
2022/06/16 10:32:40;;;;;;;3.70;1.40;;;;;;;22.85;38.39;99789.67;109092;1277;22498;-56
2022/06/16 10:35:10;;;;;;;3.80;1.30;;;;;;;22.92;37.00;99783.70;109001;1277;137876;-56
2022/06/16 10:37:39;;;;;;;11.90;2.00;;;;;;;22.98;37.38;99782.23;109108;1276;22426;-56
2022/06/16 10:40:27;;;;;;;2.20;1.40;;;;;;;23.03;37.13;99784.94;108967;1278;22423;-55
2022/06/16 10:43:15;;;;;;;3.60;1.20;;;;;;;23.01;36.08;99777.85;109004;1277;23163;-56
2022/06/16 10:45:42;;;;;;;1.80;1.30;;;;;;;22.94;36.52;99773.52;109106;1277;22445;-56
2022/06/16 10:48:28;;;;;;;5.70;1.20;;;;;;;22.90;36.27;99771.64;108934;1277;137595;-55
2022/06/16 10:51:12;;;;;;;2.90;1.40;;;;;;;22.88;37.33;99770.98;108998;1277;23004;-56
2022/06/16 10:53:41;;;;;;;1.60;1.20;;;;;;;22.89;37.04;99770.03;108941;1278;137486;-56
2022/06/16 10:56:16;;;;;;;2.00;1.50;;;;;;;22.90;36.76;99774.40;109207;1277;22460;-55
2022/06/16 10:58:51;;;;;;;2.60;1.40;;;;;;;22.91;36.18;99773.75;109152;1276;137630;-55
2022/06/16 11:01:23;;;;;;;2.20;1.40;;;;;;;22.93;35.60;99776.02;109199;1276;22402;-54
2022/06/16 11:03:52;;;;;;;3.80;2.20;;;;;;;22.93;35.02;99775.70;109082;1278;22460;-54
2022/06/16 11:06:21;;;;;;;7.90;1.60;;;;;;;22.89;35.27;99771.98;109107;1277;140578;-55
2022/06/16 11:08:56;;;;;;;1.40;1.10;;;;;;;22.89;36.28;99776.34;108971;1277;22491;-54
2022/06/16 11:11:45;;;;;;;2.90;1.20;;;;;;;22.97;35.75;99781.36;108949;1276;138092;-55
2022/06/16 11:14:22;;;;;;;1.90;1.70;;;;;;;23.07;34.81;99779.88;109194;1276;22603;-54
2022/06/16 11:16:51;;;;;;;1.80;1.10;;;;;;;23.10;33.52;99773.70;108932;1277;137276;-54
2022/06/16 11:19:29;;;;;;;1.70;1.10;;;;;;;23.08;33.79;99770.69;109163;1277;22456;-54
2022/06/16 11:21:56;;;;;;;3.20;1.00;;;;;;;23.09;34.66;99764.61;108984;1278;22546;-54
2022/06/16 11:24:29;;;;;;;4.40;1.30;;;;;;;23.16;34.65;99764.49;108968;1277;137751;-54
2022/06/16 11:27:13;;;;;;;1.90;1.00;;;;;;;23.23;35.27;99767.27;109073;1278;22492;-54
2022/06/16 11:29:40;;;;;;;4.40;2.10;;;;;;;23.31;35.12;99762.24;108935;1277;137656;-54
2022/06/16 11:32:24;;;;;;;2.70;1.00;;;;;;;23.35;35.66;99758.66;109196;1276;22525;-54
2022/06/16 11:34:51;;;;;;;3.90;1.10;;;;;;;23.40;35.81;99756.94;109049;1277;138132;-55
2022/06/16 11:37:40;;;;;;;2.20;1.10;;;;;;;23.45;35.15;99757.02;109247;1277;22560;-55
2022/06/16 11:40:13;;;;;;;6.20;1.30;;;;;;;23.49;34.59;99752.42;109238;1277;22540;-55
2022/06/16 11:43:06;;;;;;;2.30;1.10;;;;;;;23.54;35.12;99751.08;109006;1277;138947;-55
2022/06/16 11:45:39;;;;;;;1.70;1.20;;;;;;;23.58;34.73;99747.03;109150;1277;22458;-55
2022/06/16 11:48:34;;;;;;;2.80;1.40;;;;;;;23.59;33.99;99753.05;108968;1276;139520;-55
2022/06/16 11:51:10;;;;;;;2.90;1.30;;;;;;;23.58;35.45;99753.57;109088;1278;22474;-55
2022/06/16 11:54:04;;;;;;;2.90;1.70;;;;;;;23.57;34.92;99752.40;108987;1277;137328;-55
2022/06/16 11:56:39;;;;;;;2.50;1.10;;;;;;;23.56;36.22;99755.09;109054;1277;22454;-56
2022/06/16 11:59:09;;;;;;;3.50;1.50;;;;;;;23.63;35.36;99753.73;109028;1277;137716;-55
2022/06/16 12:01:44;;;;;;;1.40;1.00;;;;;;;23.71;33.81;99756.67;109132;1277;22554;-55
2022/06/16 12:04:12;;;;;;;1.60;1.30;;;;;;;23.76;33.80;99746.99;109255;1277;22433;-55
2022/06/16 12:06:49;;;;;;;1.90;0.90;;;;;;;23.78;33.73;99747.47;108918;1278;137076;-55
2022/06/16 12:09:15;;;;;;;5.80;1.30;;;;;;;23.78;33.58;99743.67;109238;1277;22512;-55
2022/06/16 12:12:17;;;;;;;1.80;1.00;;;;;;;23.80;34.44;99740.48;108952;1277;138849;-55
2022/06/16 12:15:08;;;;;;;3.10;1.40;;;;;;;23.85;34.10;99736.92;109049;1277;22484;-55
2022/06/16 12:17:41;;;;;;;1.30;1.00;;;;;;;23.90;34.64;99740.39;108896;1277;138984;-55
2022/06/16 12:21:02;;;;;;;3.40;1.10;;;;;;;23.98;33.58;99736.47;108783;1277;22995;-55
2022/06/16 12:23:44;;;;;;;2.70;1.30;;;;;;;24.06;33.00;99732.83;108803;1277;138380;-55
2022/06/16 12:26:46;;;;;;;2.20;1.10;;;;;;;24.12;33.33;99728.14;107114;1278;25345;-54
2022/06/16 12:29:29;;;;;;;3.80;1.30;;;;;;;24.17;31.53;99728.16;104208;1282;138141;-54
2022/06/16 12:32:20;;;;;;;3.20;0.90;;;;;;;24.12;31.83;99728.67;104466;1282;23163;-55
2022/06/16 12:35:00;;;;;;;1.00;0.90;;;;;;;24.09;32.41;99725.57;104382;1284;137804;-54
2022/06/16 12:37:29;;;;;;;1.40;0.90;;;;;;;24.09;32.11;99716.56;104402;1284;24419;-54